Time;durP1;ratioP1;P1;durP2;ratioP2;P2;SDS_P1;SDS_P2;PMS_P1;PMS_P2;Temp;Humidity;BMP_temperature;BMP_pressure;BME280_temperature;BME280_humidity;BME280_pressure;Samples;Min_cycle;Max_cycle;Signal;HPM_P1;HPM_P2
2020/12/17 00:01:34;;;;;;;6.65;4.57;;;;;;;22.65;42.22;95716.31;4925297;29;20028;-76
2020/12/17 00:04:00;;;;;;;7.10;4.93;;;;;;;22.63;42.47;95723.44;4924902;29;20043;-77
2020/12/17 00:06:25;;;;;;;6.85;4.60;;;;;;;22.62;42.54;95721.97;4923662;29;20091;-77
2020/12/17 00:08:51;;;;;;;6.68;5.00;;;;;;;22.65;42.35;95721.00;4922808;29;20501;-78
2020/12/17 00:11:17;;;;;;;6.63;4.85;;;;;;;22.57;42.43;95719.94;4924038;29;20035;-77
2020/12/17 00:13:42;;;;;;;7.45;5.10;;;;;;;22.58;42.24;95721.44;4923514;29;20086;-77
2020/12/17 00:16:08;;;;;;;6.30;4.55;;;;;;;22.53;42.83;95714.75;4922886;29;20031;-78
2020/12/17 00:18:33;;;;;;;6.82;4.93;;;;;;;22.55;42.65;95716.97;4925037;29;20042;-77
2020/12/17 00:20:58;;;;;;;5.93;4.15;;;;;;;22.51;42.65;95711.00;4923881;29;20040;-77
2020/12/17 00:23:24;;;;;;;6.20;4.57;;;;;;;22.46;42.61;95717.19;4924946;29;21669;-77
2020/12/17 00:25:49;;;;;;;6.70;4.50;;;;;;;22.49;42.57;95718.94;4924156;29;20034;-78
2020/12/17 00:28:15;;;;;;;7.25;5.00;;;;;;;22.45;42.55;95724.59;4922735;29;20043;-77
2020/12/17 00:30:40;;;;;;;7.53;5.00;;;;;;;22.42;42.71;95724.84;4924538;29;20535;-76
2020/12/17 00:33:05;;;;;;;7.18;4.43;;;;;;;22.40;42.91;95726.53;4922797;29;20028;-77
2020/12/17 00:35:31;;;;;;;6.68;4.47;;;;;;;22.40;42.89;95721.09;4922434;29;20032;-78
2020/12/17 00:37:56;;;;;;;6.40;4.38;;;;;;;22.42;42.66;95722.84;4939322;28;20040;-77
2020/12/17 00:40:22;;;;;;;7.50;4.82;;;;;;;22.36;42.61;95717.84;4939592;29;20036;-77
2020/12/17 00:42:47;;;;;;;6.63;4.60;;;;;;;22.37;42.93;95717.38;4940033;28;20039;-76
2020/12/17 00:45:16;;;;;;;7.63;5.13;;;;;;;22.33;42.75;95714.16;4938558;29;20059;-77
2020/12/17 00:47:42;;;;;;;6.65;4.60;;;;;;;22.30;42.95;95726.00;4939093;28;20027;-78
2020/12/17 00:50:08;;;;;;;6.93;4.60;;;;;;;22.30;42.88;95717.84;4923541;29;20038;-77
2020/12/17 00:52:41;;;;;;;7.07;4.43;;;;;;;22.28;43.00;95723.00;4907781;29;20039;-77
2020/12/17 00:55:07;;;;;;;7.40;4.82;;;;;;;22.27;43.04;95729.69;4923504;29;20035;-78
2020/12/17 00:57:32;;;;;;;6.85;4.68;;;;;;;22.24;43.13;95725.22;4925027;29;20031;-77
2020/12/17 00:59:58;;;;;;;6.78;4.22;;;;;;;22.24;42.96;95719.78;4927130;29;20059;-77
2020/12/17 01:02:23;;;;;;;6.68;4.40;;;;;;;22.22;43.02;95727.66;4926667;29;20740;-78
2020/12/17 01:04:49;;;;;;;6.50;4.80;;;;;;;22.22;43.03;95727.66;4942624;28;20036;-77
2020/12/17 01:07:14;;;;;;;7.43;4.78;;;;;;;22.23;43.19;95721.00;4942299;28;20019;-77
2020/12/17 01:09:40;;;;;;;6.18;4.05;;;;;;;22.21;42.98;95723.47;4908528;29;20044;-79
2020/12/17 01:12:06;;;;;;;7.55;4.82;;;;;;;22.21;42.96;95720.75;4926467;29;20024;-79
2020/12/17 01:14:32;;;;;;;6.28;4.65;;;;;;;22.18;43.11;95720.91;4911180;29;20028;-78
2020/12/17 01:16:57;;;;;;;6.95;4.63;;;;;;;22.17;43.08;95719.44;4927422;29;20067;-78
2020/12/17 01:19:23;;;;;;;6.55;4.40;;;;;;;22.16;43.04;95726.84;4925609;29;20417;-77
2020/12/17 01:21:51;;;;;;;6.25;4.70;;;;;;;22.12;43.13;95720.91;4929559;29;20043;-78
2020/12/17 01:24:17;;;;;;;7.10;4.50;;;;;;;22.11;43.04;95711.22;4929596;29;20114;-77
2020/12/17 01:26:42;;;;;;;7.50;4.85;;;;;;;22.15;43.13;95722.66;4927019;29;20032;-77
2020/12/17 01:29:07;;;;;;;6.38;4.35;;;;;;;22.12;43.08;95723.63;4927267;29;20465;-77
2020/12/17 01:31:33;;;;;;;7.00;4.43;;;;;;;22.07;43.01;95721.56;4927541;29;20043;-77
2020/12/17 01:33:58;;;;;;;5.65;4.07;;;;;;;22.12;43.16;95718.19;4925909;29;20589;-78
2020/12/17 01:36:24;;;;;;;6.50;4.43;;;;;;;22.10;43.14;95715.16;4927278;29;20571;-76
2020/12/17 01:38:49;;;;;;;6.40;4.22;;;;;;;22.07;43.30;95716.13;4942247;28;20036;-77
2020/12/17 01:41:14;;;;;;;6.40;4.40;;;;;;;22.07;43.14;95704.53;4909727;29;20043;-77
2020/12/17 01:43:41;;;;;;;7.32;4.90;;;;;;;22.05;43.23;95713.16;4941513;28;20067;-77
2020/12/17 01:46:07;;;;;;;7.03;4.57;;;;;;;22.05;43.19;95705.00;4926074;29;20024;-77
2020/12/17 01:48:33;;;;;;;7.43;5.22;;;;;;;22.07;43.09;95716.13;4910265;29;20063;-77
2020/12/17 01:50:58;;;;;;;6.43;4.13;;;;;;;22.04;43.33;95706.22;4941424;28;20895;-78
2020/12/17 01:53:24;;;;;;;7.75;4.60;;;;;;;22.02;43.13;95708.69;4927357;29;20028;-78
2020/12/17 01:55:49;;;;;;;6.70;4.63;;;;;;;22.02;43.25;95708.69;4927156;29;21907;-77
2020/12/17 01:58:14;;;;;;;6.05;4.10;;;;;;;21.99;43.23;95704.22;4925357;29;20485;-77
2020/12/17 02:00:40;;;;;;;6.47;4.25;;;;;;;21.99;43.21;95708.91;4941170;28;20031;-77
2020/12/17 02:03:05;;;;;;;7.18;4.53;;;;;;;21.97;43.29;95703.97;4931723;29;20020;-77
2020/12/17 02:05:31;;;;;;;7.40;4.55;;;;;;;21.97;43.08;95708.63;4933736;29;20497;-77
2020/12/17 02:07:57;;;;;;;7.97;5.05;;;;;;;21.95;43.39;95703.69;4925842;29;20516;-79
2020/12/17 02:10:22;;;;;;;7.03;4.75;;;;;;;21.96;43.25;95699.75;4925384;29;20504;-77
2020/12/17 02:12:48;;;;;;;7.07;4.57;;;;;;;21.96;43.22;95699.00;4941991;28;20032;-77
2020/12/17 02:15:14;;;;;;;7.72;4.85;;;;;;;21.85;43.34;95690.00;4941311;28;20042;-79
2020/12/17 02:17:40;;;;;;;6.65;4.47;;;;;;;21.91;43.39;95696.25;4929367;29;20044;-78
2020/12/17 02:20:06;;;;;;;6.97;4.55;;;;;;;21.91;43.27;95696.25;4941449;28;20032;-77
2020/12/17 02:22:32;;;;;;;6.20;4.22;;;;;;;21.90;43.08;95689.31;4941070;28;20143;-77
2020/12/17 02:24:57;;;;;;;7.78;4.95;;;;;;;21.89;43.32;95699.44;4939526;28;20483;-79
2020/12/17 02:27:23;;;;;;;6.47;4.45;;;;;;;21.91;43.56;95696.25;4909595;29;20028;-78
2020/12/17 02:29:48;;;;;;;7.63;4.80;;;;;;;21.87;43.10;95695.69;4922982;29;20043;-77
2020/12/17 02:32:13;;;;;;;6.80;4.45;;;;;;;21.87;43.33;95701.13;4941580;28;20027;-78
2020/12/17 02:34:39;;;;;;;7.15;4.60;;;;;;;21.87;43.32;95692.97;4940169;28;20058;-80
2020/12/17 02:37:04;;;;;;;6.95;4.78;;;;;;;21.84;43.54;95685.78;4941054;28;20397;-77
2020/12/17 02:39:33;;;;;;;7.03;4.32;;;;;;;21.86;43.38;95688.78;4924411;29;20044;-77
2020/12/17 02:41:59;;;;;;;7.40;5.07;;;;;;;21.86;43.27;95677.91;4925729;29;20063;-78
2020/12/17 02:44:24;;;;;;;7.00;4.57;;;;;;;21.86;43.38;95688.78;4940761;28;20509;-77
2020/12/17 02:46:49;;;;;;;6.13;4.60;;;;;;;21.78;43.46;95693.16;4925890;29;20770;-77
2020/12/17 02:49:15;;;;;;;7.60;4.88;;;;;;;21.78;43.34;95682.28;4924753;29;20031;-78
2020/12/17 02:51:42;;;;;;;7.45;4.78;;;;;;;21.80;43.42;95698.88;4924752;29;20032;-78
2020/12/17 02:54:07;;;;;;;6.90;4.65;;;;;;;21.81;43.41;95686.75;4908917;29;20040;-77
2020/12/17 02:56:33;;;;;;;7.55;4.82;;;;;;;21.79;43.51;95689.22;4940114;28;20405;-78
2020/12/17 02:58:58;;;;;;;6.65;4.35;;;;;;;21.70;43.39;95675.81;4925505;29;20047;-76
2020/12/17 03:01:23;;;;;;;7.20;4.40;;;;;;;21.77;43.53;95691.69;4925511;29;21038;-77
2020/12/17 03:03:50;;;;;;;7.22;4.68;;;;;;;21.77;43.52;95691.69;4924301;29;20497;-76
2020/12/17 03:06:15;;;;;;;7.35;4.60;;;;;;;21.75;43.48;95688.69;4924760;29;20033;-75
2020/12/17 03:08:41;;;;;;;6.88;4.80;;;;;;;21.75;43.52;95694.13;4940007;28;20043;-77
2020/12/17 03:11:07;;;;;;;6.70;4.47;;;;;;;21.73;43.53;95691.16;4925799;29;20038;-76
2020/12/17 03:13:32;;;;;;;7.10;4.65;;;;;;;21.71;43.64;95693.59;4939002;28;20031;-77
2020/12/17 03:15:57;;;;;;;7.15;4.72;;;;;;;21.72;43.34;95695.84;4924480;29;20103;-78
2020/12/17 03:18:23;;;;;;;7.28;4.40;;;;;;;21.67;43.72;95693.84;4940096;28;20036;-77
2020/12/17 03:20:48;;;;;;;7.55;4.57;;;;;;;21.70;43.47;95697.53;4939200;28;20390;-78
2020/12/17 03:23:14;;;;;;;6.50;4.38;;;;;;;21.70;43.49;95692.09;4940142;28;20563;-77
2020/12/17 03:25:39;;;;;;;6.88;4.70;;;;;;;21.67;43.48;95693.06;4931070;29;20027;-78
2020/12/17 03:28:05;;;;;;;7.32;4.50;;;;;;;21.70;43.50;95697.53;4923858;29;20041;-77
2020/12/17 03:30:31;;;;;;;7.15;4.53;;;;;;;21.67;43.42;95703.94;4925709;29;20036;-77
2020/12/17 03:32:56;;;;;;;7.55;4.88;;;;;;;21.70;43.51;95702.97;4940744;29;20108;-77
2020/12/17 03:35:22;;;;;;;7.25;4.22;;;;;;;21.63;43.63;95698.00;4924332;29;20035;-78
2020/12/17 03:37:47;;;;;;;7.78;4.90;;;;;;;21.68;43.56;95710.88;4923342;29;20516;-77
2020/12/17 03:40:13;;;;;;;7.45;4.65;;;;;;;21.66;43.60;95707.91;4925349;29;20496;-78
2020/12/17 03:42:39;;;;;;;8.30;4.95;;;;;;;21.66;43.59;95713.34;4924884;29;21101;-77
2020/12/17 03:45:05;;;;;;;7.30;4.82;;;;;;;21.64;43.63;95718.50;4925684;29;20453;-77
2020/12/17 03:47:30;;;;;;;7.07;4.43;;;;;;;21.64;43.96;95721.22;4926725;29;20090;-77
2020/12/17 03:49:55;;;;;;;6.57;4.35;;;;;;;21.65;43.82;95711.84;4926190;29;20405;-77
2020/12/17 03:52:21;;;;;;;6.97;4.80;;;;;;;21.71;43.56;95715.34;4924454;29;20028;-77
2020/12/17 03:54:46;;;;;;;6.88;3.97;;;;;;;21.76;43.38;95712.66;4939943;28;20413;-77
2020/12/17 03:57:12;;;;;;;6.10;4.40;;;;;;;21.82;43.47;95715.44;4906814;29;20079;-77
2020/12/17 03:59:37;;;;;;;6.10;4.53;;;;;;;21.87;43.40;95722.91;4923783;29;20942;-77
2020/12/17 04:02:03;;;;;;;6.30;4.00;;;;;;;21.90;43.38;95716.50;4924646;29;20034;-77
2020/12/17 04:04:28;;;;;;;6.35;4.40;;;;;;;21.92;43.27;95710.09;4925214;29;20463;-77
2020/12/17 04:06:53;;;;;;;7.05;4.28;;;;;;;21.94;43.07;95718.53;4924048;29;20493;-77
2020/12/17 04:09:19;;;;;;;6.68;4.10;;;;;;;21.97;43.26;95717.56;4924573;29;20063;-79
2020/12/17 04:11:44;;;;;;;6.50;4.28;;;;;;;21.98;43.07;95718.31;4938633;28;20028;-77
2020/12/17 04:14:09;;;;;;;6.93;4.50;;;;;;;22.00;42.78;95705.72;4906889;29;20032;-77
2020/12/17 04:16:35;;;;;;;6.20;4.07;;;;;;;22.02;43.11;95708.69;4923631;29;20020;-77
2020/12/17 04:19:00;;;;;;;7.95;4.55;;;;;;;22.04;43.23;95711.66;4923697;29;20032;-78
2020/12/17 04:21:26;;;;;;;7.65;4.78;;;;;;;22.04;43.09;95706.22;4939130;28;20772;-78
2020/12/17 04:23:51;;;;;;;7.18;4.40;;;;;;;22.06;43.06;95703.78;4924746;29;20052;-77
2020/12/17 04:26:17;;;;;;;6.70;4.50;;;;;;;22.05;42.87;95707.72;4923670;29;20557;-78
2020/12/17 04:28:42;;;;;;;7.55;4.50;;;;;;;22.09;42.90;95708.25;4925187;29;20032;-77
2020/12/17 04:31:07;;;;;;;6.35;4.00;;;;;;;22.11;43.02;95703.06;4923204;29;20028;-78
2020/12/17 04:33:33;;;;;;;7.10;4.28;;;;;;;22.13;42.94;95714.19;4943733;28;20567;-77
2020/12/17 04:35:58;;;;;;;6.25;4.20;;;;;;;22.13;42.93;95714.19;4932151;29;22212;-77
2020/12/17 04:38:25;;;;;;;6.63;4.40;;;;;;;22.15;42.86;95702.84;4937661;29;20043;-79
2020/12/17 04:40:50;;;;;;;6.35;4.13;;;;;;;22.15;42.87;95706.31;4907075;29;20036;-77
2020/12/17 04:43:15;;;;;;;6.07;3.92;;;;;;;22.17;43.02;95709.28;4911998;29;20432;-77
2020/12/17 04:45:41;;;;;;;7.03;4.00;;;;;;;22.17;43.00;95706.56;4942703;28;20034;-76
2020/12/17 04:48:07;;;;;;;7.18;4.28;;;;;;;22.19;42.92;95711.53;4926172;29;20094;-77
2020/12/17 04:50:32;;;;;;;5.88;3.92;;;;;;;22.20;42.93;95704.88;4926661;29;20054;-77
2020/12/17 04:52:58;;;;;;;6.68;4.00;;;;;;;22.21;42.94;95704.41;4943206;28;20102;-77
2020/12/17 04:55:24;;;;;;;7.18;4.00;;;;;;;22.21;42.80;95701.69;4911351;29;20557;-77
2020/12/17 04:57:51;;;;;;;6.95;4.40;;;;;;;22.21;42.81;95698.97;4926740;29;20098;-77
2020/12/17 05:00:16;;;;;;;6.00;3.65;;;;;;;22.24;42.71;95708.88;4926640;29;20047;-77
2020/12/17 05:02:46;;;;;;;5.57;3.67;;;;;;;22.23;42.72;95712.84;4926391;29;20087;-75
2020/12/17 05:05:11;;;;;;;7.22;4.50;;;;;;;22.24;42.87;95719.00;4941314;28;20049;-78
2020/12/17 05:07:37;;;;;;;7.00;3.97;;;;;;;22.24;42.91;95708.88;4926810;29;20492;-78
2020/12/17 05:10:03;;;;;;;7.38;4.32;;;;;;;22.29;42.82;95712.88;4909436;29;20492;-79
2020/12/17 05:12:28;;;;;;;6.60;4.28;;;;;;;22.30;42.82;95712.41;4928426;29;20089;-79
2020/12/17 05:14:55;;;;;;;6.75;4.28;;;;;;;22.30;42.78;95706.94;4925003;29;20047;-79
2020/12/17 05:17:20;;;;;;;7.47;4.40;;;;;;;22.39;42.77;95714.94;4926478;29;20060;-77
2020/12/17 05:19:46;;;;;;;6.85;3.97;;;;;;;22.43;42.82;95707.25;4941842;28;20111;-78
2020/12/17 05:22:13;;;;;;;7.05;3.90;;;;;;;22.45;43.03;95702.06;4940452;28;20032;-79
2020/12/17 05:24:38;;;;;;;6.80;4.18;;;;;;;22.51;42.51;95705.56;4941992;28;20428;-79
2020/12/17 05:27:04;;;;;;;8.30;4.78;;;;;;;22.58;42.61;95716.00;4923305;29;20031;-77
2020/12/17 05:29:29;;;;;;;6.10;4.10;;;;;;;22.61;42.52;95715.03;4941541;28;20036;-78
2020/12/17 05:31:54;;;;;;;8.18;4.25;;;;;;;22.63;42.10;95712.56;4925939;29;20039;-79
2020/12/17 05:34:20;;;;;;;7.60;4.60;;;;;;;22.72;42.25;95720.53;4925579;29;20048;-79
2020/12/17 05:36:46;;;;;;;8.10;4.97;;;;;;;22.79;42.18;95720.09;4926043;29;20047;-79
2020/12/17 05:39:12;;;;;;;6.68;4.05;;;;;;;22.85;42.08;95718.13;4926396;29;20028;-78
2020/12/17 05:41:38;;;;;;;6.97;4.35;;;;;;;22.91;41.86;95714.94;4876072;28;20173;-76
2020/12/17 05:44:30;;;;;;;6.90;4.72;;;;;;;22.98;41.91;95716.47;4929906;28;20031;-77
2020/12/17 05:46:56;;;;;;;6.50;4.00;;;;;;;22.97;41.64;95715.75;4938782;28;20047;-77
2020/12/17 05:49:22;;;;;;;6.82;4.80;;;;;;;23.13;41.58;95723.22;4943940;28;20042;-77
2020/12/17 05:51:49;;;;;;;7.93;4.78;;;;;;;23.20;41.36;95733.66;4943689;28;20099;-76
2020/12/17 05:54:24;;;;;;;7.75;4.78;;;;;;;23.26;41.38;95728.97;4928994;29;20043;-76
2020/12/17 05:56:50;;;;;;;7.75;4.70;;;;;;;23.37;41.06;95737.16;4927464;29;20038;-75
2020/12/17 05:59:22;;;;;;;8.02;4.68;;;;;;;23.40;41.08;95736.19;4912020;28;20039;-78
2020/12/17 06:01:48;;;;;;;6.78;4.38;;;;;;;23.48;40.65;95737.19;4944861;28;20030;-77
2020/12/17 06:04:16;;;;;;;7.85;4.50;;;;;;;23.53;40.64;95744.66;4960476;28;20043;-75
2020/12/17 06:06:45;;;;;;;7.30;4.68;;;;;;;23.56;40.66;95738.94;4911316;28;20134;-76
2020/12/17 06:09:18;;;;;;;8.30;4.97;;;;;;;23.64;40.35;95744.69;4912591;28;20102;-77
2020/12/17 06:11:43;;;;;;;8.93;4.97;;;;;;;23.67;40.40;95732.81;4947592;28;20102;-78
2020/12/17 06:14:09;;;;;;;7.97;4.78;;;;;;;23.74;40.17;95749.44;4960392;28;20401;-78
2020/12/17 06:16:34;;;;;;;9.43;4.93;;;;;;;23.77;39.93;95753.16;4945423;28;20448;-78
2020/12/17 06:19:00;;;;;;;8.68;5.13;;;;;;;23.83;40.00;95746.47;4933018;29;20043;-76
2020/12/17 06:21:25;;;;;;;8.15;5.05;;;;;;;23.86;39.61;95745.47;4928641;29;20031;-81
2020/12/17 06:23:58;;;;;;;9.65;5.07;;;;;;;23.90;39.63;95740.50;4943744;28;20050;-78
2020/12/17 06:26:24;;;;;;;10.25;5.00;;;;;;;23.90;39.52;95738.53;4943018;28;20034;-84
2020/12/17 06:28:51;;;;;;;8.52;4.72;;;;;;;23.97;39.54;95743.50;4960862;28;20039;-89
2020/12/17 06:31:26;;;;;;;10.73;5.30;;;;;;;24.04;39.70;95748.47;4927466;29;20094;-85
2020/12/17 06:33:55;;;;;;;8.32;4.82;;;;;;;24.04;39.31;95739.53;4943994;28;20042;-86
2020/12/17 06:36:28;;;;;;;10.55;5.57;;;;;;;24.11;39.44;95750.72;4943689;28;20082;-80
2020/12/17 06:38:54;;;;;;;10.05;5.75;;;;;;;24.15;39.86;95756.63;4927762;28;20167;-82
2020/12/17 06:41:22;;;;;;;9.30;5.65;;;;;;;24.15;39.73;95750.44;4944917;28;20428;-77
2020/12/17 06:43:47;;;;;;;8.90;5.40;;;;;;;24.19;39.20;95757.16;4959964;28;20043;-76
2020/12/17 06:46:36;;;;;;;8.02;5.18;;;;;;;24.22;39.35;95750.69;4943415;28;20027;-76
2020/12/17 06:49:06;;;;;;;8.77;5.20;;;;;;;24.28;39.59;95754.16;4957990;28;20090;-76
2020/12/17 06:51:31;;;;;;;;;;;;;;;24.31;39.21;95758.63;4945515;28;20030;-77
2020/12/17 06:53:57;;;;;;;8.70;5.07;;;;;;;24.33;39.53;95750.72;4945436;28;20399;-80
2020/12/17 06:56:23;;;;;;;8.20;5.00;;;;;;;24.33;38.99;95750.72;4942730;28;20097;-79
2020/12/17 06:58:48;;;;;;;7.88;4.60;;;;;;;24.36;39.11;95749.72;4943373;28;20038;-78
2020/12/17 07:01:26;;;;;;;7.20;4.75;;;;;;;24.38;38.99;95758.19;4959207;28;20050;-78
2020/12/17 07:03:52;;;;;;;8.40;4.88;;;;;;;24.36;38.92;95749.72;4930425;29;20098;-77
2020/12/17 07:06:24;;;;;;;7.63;4.53;;;;;;;24.47;39.11;95755.19;4944805;28;20515;-76
2020/12/17 07:08:54;;;;;;;7.63;4.60;;;;;;;24.38;39.64;95752.72;4946691;28;20031;-81
2020/12/17 07:11:42;;;;;;;9.57;5.22;;;;;;;24.56;39.28;95760.38;4951144;28;20110;-83
2020/12/17 07:14:27;;;;;;;7.05;4.57;;;;;;;24.64;38.88;95758.63;4954496;28;20167;-82
2020/12/17 07:16:58;;;;;;;7.18;4.53;;;;;;;24.66;38.95;95756.13;4950688;28;20039;-85
2020/12/17 07:19:27;;;;;;;8.68;4.70;;;;;;;24.71;38.82;95760.84;4944341;28;20055;-84
2020/12/17 07:22:06;;;;;;;10.52;4.70;;;;;;;24.72;38.66;95754.13;4941220;28;20035;-80
2020/12/17 07:24:48;;;;;;;9.85;4.88;;;;;;;24.77;38.75;95767.03;4942877;28;20047;-79
2020/12/17 07:27:33;;;;;;;9.30;5.05;;;;;;;24.76;39.08;95751.91;4927270;29;20067;-82
2020/12/17 07:29:58;;;;;;;7.45;4.45;;;;;;;24.77;38.62;95761.56;4940668;28;20137;-82
2020/12/17 07:32:27;;;;;;;7.00;4.57;;;;;;;24.78;38.65;95768.53;4942326;28;20126;-82
2020/12/17 07:34:54;;;;;;;9.00;5.35;;;;;;;24.77;38.82;95759.59;4957667;28;20035;-79
2020/12/17 07:37:57;;;;;;;6.93;4.40;;;;;;;24.81;39.00;95762.06;4939618;28;20412;-81
2020/12/17 07:40:36;;;;;;;13.77;5.20;;;;;;;24.78;39.06;95757.59;4942124;28;20105;-81
2020/12/17 07:43:14;;;;;;;9.25;5.13;;;;;;;24.84;38.48;95762.56;4926144;28;20031;-80
2020/12/17 07:45:53;;;;;;;7.25;4.55;;;;;;;24.86;38.43;95757.31;4924994;29;20616;-79
2020/12/17 07:48:44;;;;;;;9.82;5.80;;;;;;;24.86;38.49;95754.59;4942410;28;20031;-80
2020/12/17 07:51:12;;;;;;;7.45;4.53;;;;;;;24.88;38.87;95763.03;4942305;28;20039;-80
2020/12/17 07:53:38;;;;;;;8.07;4.57;;;;;;;24.88;38.53;95767.75;4943239;28;20039;-79
2020/12/17 07:56:06;;;;;;;7.78;4.80;;;;;;;24.94;38.92;95774.69;4941400;28;20511;-80
2020/12/17 07:58:31;;;;;;;8.05;5.00;;;;;;;24.95;38.50;95767.25;4944578;28;20035;-77
2020/12/17 08:00:57;;;;;;;8.23;5.13;;;;;;;25.02;38.58;95764.78;4943238;28;20062;-77
2020/12/17 08:03:23;;;;;;;7.97;5.22;;;;;;;25.03;38.23;95768.97;4943814;28;20034;-77
2020/12/17 08:05:49;;;;;;;9.35;5.63;;;;;;;25.11;38.15;95775.44;4942399;28;20098;-78
2020/12/17 08:08:18;;;;;;;7.90;5.00;;;;;;;25.11;38.01;95775.44;4942354;28;20059;-78
2020/12/17 08:10:44;;;;;;;8.15;4.95;;;;;;;25.09;38.02;95777.16;4941172;28;20035;-78
2020/12/17 08:13:09;;;;;;;9.52;5.07;;;;;;;25.06;38.14;95778.91;4941577;28;20091;-78
2020/12/17 08:15:35;;;;;;;7.97;4.60;;;;;;;25.13;37.94;95783.84;4942232;28;20039;-82
2020/12/17 08:18:02;;;;;;;11.13;5.78;;;;;;;25.14;37.30;95779.91;4941965;28;20025;-89
2020/12/17 08:20:28;;;;;;;29.15;14.60;;;;;;;24.68;33.11;95780.94;4930575;29;20124;-78
2020/12/17 08:22:54;;;;;;;23.17;10.95;;;;;;;24.13;35.59;95786.41;4926024;28;20035;-78
2020/12/17 08:25:20;;;;;;;13.93;8.15;;;;;;;24.36;36.39;95790.66;4941852;28;20039;-78
2020/12/17 08:27:46;;;;;;;13.93;7.22;;;;;;;24.52;37.45;95795.38;4941918;28;20067;-78
2020/12/17 08:30:12;;;;;;;12.20;6.78;;;;;;;24.58;37.25;95793.41;4942080;28;20047;-77
2020/12/17 08:32:49;;;;;;;13.57;7.18;;;;;;;24.60;37.30;95785.44;4943649;28;20057;-77
2020/12/17 08:35:19;;;;;;;13.48;7.30;;;;;;;24.58;37.51;95787.94;4946982;28;20035;-78
2020/12/17 08:37:44;;;;;;;12.63;6.25;;;;;;;24.61;37.72;95797.88;4927820;28;20050;-78
2020/12/17 08:40:10;;;;;;;12.65;7.03;;;;;;;24.58;38.08;95793.41;4943297;28;20516;-77
2020/12/17 08:42:36;;;;;;;11.02;6.75;;;;;;;24.59;37.97;95800.34;4942135;28;20027;-79
2020/12/17 08:45:10;;;;;;;11.95;6.75;;;;;;;24.51;38.15;95800.13;4941015;28;20689;-77
2020/12/17 08:47:40;;;;;;;11.18;6.38;;;;;;;24.47;38.32;95790.69;4958823;28;20023;-78
2020/12/17 08:50:06;;;;;;;12.00;6.30;;;;;;;24.46;38.08;95791.91;4940121;28;20031;-80
2020/12/17 08:52:32;;;;;;;10.75;6.15;;;;;;;24.42;38.23;95791.41;4944360;28;20087;-77
2020/12/17 08:55:04;;;;;;;13.13;6.72;;;;;;;24.38;38.46;95785.47;4942792;28;20039;-78
2020/12/17 08:57:30;;;;;;;13.30;6.68;;;;;;;24.34;38.51;95780.25;4957897;28;20028;-77
2020/12/17 08:59:55;;;;;;;12.38;6.93;;;;;;;24.33;38.29;95778.00;4942658;28;20071;-77
2020/12/17 09:02:27;;;;;;;10.60;6.57;;;;;;;24.26;38.67;95767.56;4942466;28;20016;-76
2020/12/17 09:05:00;;;;;;;10.60;6.45;;;;;;;24.24;38.73;95775.50;4926475;28;20032;-77
2020/12/17 09:07:29;;;;;;;9.98;6.13;;;;;;;24.24;38.92;95778.22;4941951;28;20027;-76
2020/12/17 09:10:11;;;;;;;10.68;6.10;;;;;;;24.19;39.15;95762.59;4942117;28;20051;-75
2020/12/17 09:12:37;;;;;;;12.10;5.95;;;;;;;24.13;39.40;95764.59;4941112;28;20035;-77
2020/12/17 09:15:09;;;;;;;11.20;6.07;;;;;;;24.10;39.41;95762.84;4941597;28;20039;-76
2020/12/17 09:17:35;;;;;;;9.60;5.47;;;;;;;24.10;39.48;95765.59;4940456;28;20405;-76
2020/12/17 09:20:00;;;;;;;9.68;5.75;;;;;;;24.09;39.16;95769.53;4945895;28;20035;-76
2020/12/17 09:22:34;;;;;;;10.57;6.00;;;;;;;24.07;39.86;95765.84;4929745;28;20027;-77
2020/12/17 09:24:59;;;;;;;11.18;6.63;;;;;;;24.04;39.45;95764.84;4945967;28;20122;-77
2020/12/17 09:27:29;;;;;;;11.00;6.30;;;;;;;24.00;39.90;95760.84;4945641;28;21735;-77
2020/12/17 09:30:03;;;;;;;11.68;6.10;;;;;;;23.98;39.57;95761.34;4929956;28;20039;-77
2020/12/17 09:32:28;;;;;;;10.88;6.00;;;;;;;23.97;39.85;95757.13;4946283;29;20043;-76
2020/12/17 09:35:26;;;;;;;9.70;5.95;;;;;;;23.93;39.89;95756.66;4945793;28;20094;-77
2020/12/17 09:37:58;;;;;;;9.82;6.07;;;;;;;23.89;40.04;95756.13;4940851;28;20047;-77
2020/12/17 09:40:24;;;;;;;9.27;5.75;;;;;;;23.86;40.05;95757.13;4946819;28;20039;-77
2020/12/17 09:43:02;;;;;;;9.85;5.78;;;;;;;23.86;40.60;95761.13;4947154;28;20500;-78
2020/12/17 09:45:29;;;;;;;12.68;6.85;;;;;;;23.85;39.96;95759.63;4957703;28;20046;-76
2020/12/17 09:47:54;;;;;;;11.02;6.00;;;;;;;23.83;40.03;95762.09;4945603;28;20035;-77
2020/12/17 09:50:20;;;;;;;10.45;5.88;;;;;;;23.83;39.83;95756.66;4961546;28;20412;-78
2020/12/17 09:52:46;;;;;;;11.52;6.90;;;;;;;23.80;40.46;95763.09;4945102;28;20419;-76
2020/12/17 09:55:12;;;;;;;10.35;6.30;;;;;;;23.77;39.94;95753.91;4961491;28;20043;-76
2020/12/17 09:57:44;;;;;;;10.13;6.05;;;;;;;23.75;40.42;95755.63;4944181;28;20476;-77
2020/12/17 10:00:13;;;;;;;8.98;5.70;;;;;;;23.69;40.05;95757.59;4960721;28;20114;-78
2020/12/17 10:02:39;;;;;;;11.67;6.57;;;;;;;23.72;40.14;95762.06;4945541;28;20488;-77
2020/12/17 10:05:06;;;;;;;10.55;5.95;;;;;;;23.70;40.19;95759.09;4960558;28;20047;-78
2020/12/17 10:07:31;;;;;;;9.15;5.63;;;;;;;23.68;40.10;95750.66;4960443;28;20490;-77
2020/12/17 10:09:57;;;;;;;9.95;5.80;;;;;;;23.69;40.24;95757.59;4945964;28;20043;-77
2020/12/17 10:12:24;;;;;;;10.27;5.70;;;;;;;23.68;40.18;95756.13;4944811;28;20039;-77
2020/12/17 10:14:49;;;;;;;10.65;6.13;;;;;;;23.66;40.69;95753.13;4945259;28;20110;-77
2020/12/17 10:17:15;;;;;;;34.33;8.27;;;;;;;23.63;40.38;95754.09;4959792;28;20042;-80
2020/12/17 10:19:40;;;;;;;13.30;6.40;;;;;;;23.61;41.01;95745.66;4942472;28;20539;-78
2020/12/17 10:22:05;;;;;;;10.98;5.90;;;;;;;23.63;40.46;95748.63;4943808;28;20412;-77
2020/12/17 10:24:31;;;;;;;10.43;6.03;;;;;;;23.63;40.52;95743.16;4945487;28;20055;-78
2020/12/17 10:26:57;;;;;;;11.27;6.15;;;;;;;23.63;40.78;95737.72;4943681;28;20031;-78
2020/12/17 10:29:22;;;;;;;12.95;6.38;;;;;;;23.65;40.69;95740.75;4946708;28;20412;-77
2020/12/17 10:31:48;;;;;;;10.93;5.68;;;;;;;23.66;40.38;95742.97;4925845;29;20412;-76
2020/12/17 10:34:15;;;;;;;9.93;5.95;;;;;;;23.65;40.97;95740.75;4963302;28;20028;-77
2020/12/17 10:36:41;;;;;;;11.98;6.47;;;;;;;23.66;40.83;95742.22;4945880;28;20523;-76
2020/12/17 10:39:07;;;;;;;12.05;6.25;;;;;;;23.66;41.04;95736.75;4942300;28;20031;-78
2020/12/17 10:41:32;;;;;;;9.60;5.57;;;;;;;23.67;41.37;95735.53;4944215;29;20149;-77
2020/12/17 10:43:58;;;;;;;9.77;5.78;;;;;;;23.67;41.67;95727.34;4945778;28;20471;-77
2020/12/17 10:46:23;;;;;;;10.40;5.82;;;;;;;23.70;41.65;95726.38;4927443;29;20411;-78
2020/12/17 10:48:49;;;;;;;12.63;6.57;;;;;;;23.74;41.53;95726.88;4924353;28;20015;-77
2020/12/17 10:51:15;;;;;;;11.43;6.00;;;;;;;23.78;41.34;95732.81;4942670;28;20038;-77
2020/12/17 10:53:43;;;;;;;9.90;5.53;;;;;;;23.80;41.27;95724.91;4945738;28;20492;-81
2020/12/17 10:56:09;;;;;;;11.20;6.20;;;;;;;23.89;41.28;95722.66;4930487;29;20036;-78
2020/12/17 10:58:36;;;;;;;11.13;6.15;;;;;;;23.94;41.39;95725.38;4930482;29;20486;-80
2020/12/17 11:01:02;;;;;;;10.43;6.13;;;;;;;24.02;41.28;95723.66;4943304;28;20460;-78
2020/12/17 11:03:28;;;;;;;11.43;6.32;;;;;;;24.05;41.17;95719.94;4960090;28;20094;-77
2020/12/17 11:05:59;;;;;;;10.98;6.05;;;;;;;24.12;40.73;95724.88;4941502;28;20078;-80
2020/12/17 11:08:25;;;;;;;11.65;6.00;;;;;;;24.19;40.72;95718.94;4908786;29;20031;-79
2020/12/17 11:10:50;;;;;;;11.40;6.22;;;;;;;24.14;40.62;95706.06;4944796;28;20034;-79
2020/12/17 11:13:16;;;;;;;10.48;6.10;;;;;;;24.25;40.33;95716.94;4944658;28;20031;-80
2020/12/17 11:15:42;;;;;;;10.35;5.63;;;;;;;24.31;40.17;95717.69;4960799;28;20038;-79
2020/12/17 11:18:09;;;;;;;12.18;6.70;;;;;;;24.37;40.06;95713.00;4927027;29;20062;-79
2020/12/17 11:20:39;;;;;;;12.88;6.65;;;;;;;24.49;40.08;95717.19;4944476;28;20671;-79
2020/12/17 11:23:05;;;;;;;12.15;6.32;;;;;;;24.52;39.78;95713.47;4926778;28;20047;-79
2020/12/17 11:25:36;;;;;;;11.15;6.63;;;;;;;24.52;40.42;95697.81;4943783;28;20408;-78
2020/12/17 11:28:11;;;;;;;11.27;5.88;;;;;;;24.56;39.84;95698.31;4942214;28;20087;-79
2020/12/17 11:30:36;;;;;;;11.80;6.43;;;;;;;24.61;40.29;95699.53;4940611;28;20027;-78
2020/12/17 11:33:03;;;;;;;10.77;6.00;;;;;;;24.62;40.19;95701.00;4895954;28;20043;-83